<?xml version="1.0" encoding="UTF-8" standalone="no" ?>
<gpx xmlns="http://www.topografix.com/GPX/1/1" xmlns:xsi="http://www.w3.org/2001/XMLSchema-instance" xsi:schemaLocation="http://www.topografix.com/GPX/1/1 http://www.topografix.com/GPX/1/1/gpx.xsd" version="1.1" creator="VisuGPX - https://www.visugpx.com">
  <metadata>
    <name>rando GR 34 Le Crouesty-Rohalinguen 18 km </name>
    <desc><![CDATA[Belle rando de 18 km sur le GR34 depuis le port du Crouesty jusqu'à Rohalinguen. Sentier côtier sur l'océan- profil facile -attention aux horaires des marées. A retrouver aussi sur [url]http://trekkingzone.wordpress.com[/url]]]></desc>
  </metadata>
  <trk>
    <name><![CDATA[8395376-rando Crouesty-Rohalinguen]]></name>
    <trkseg>
      <trkpt lat="47.54526" lon="-2.89008">
        <ele>5</ele>
        <time>2018-03-02T09:46:07Z</time>
      </trkpt>
      <trkpt lat="47.54472" lon="-2.88984">
        <ele>7</ele>
        <time>2018-03-02T09:47:07Z</time>
      </trkpt>
      <trkpt lat="47.54397" lon="-2.89021">
        <ele>9</ele>
        <time>2018-03-02T09:48:07Z</time>
      </trkpt>
      <trkpt lat="47.5437" lon="-2.89106">
        <ele>7</ele>
        <time>2018-03-02T09:49:07Z</time>
      </trkpt>
      <trkpt lat="47.54311" lon="-2.89166">
        <ele>7</ele>
        <time>2018-03-02T09:50:07Z</time>
      </trkpt>
      <trkpt lat="47.54247" lon="-2.89148">
        <ele>9</ele>
        <time>2018-03-02T09:51:07Z</time>
      </trkpt>
      <trkpt lat="47.54206" lon="-2.89185">
        <ele>10</ele>
        <time>2018-03-02T09:52:07Z</time>
      </trkpt>
      <trkpt lat="47.54212" lon="-2.89279">
        <ele>9</ele>
        <time>2018-03-02T09:53:07Z</time>
      </trkpt>
      <trkpt lat="47.54177" lon="-2.8933">
        <ele>12</ele>
        <time>2018-03-02T09:54:07Z</time>
      </trkpt>
      <trkpt lat="47.54206" lon="-2.89445">
        <ele>4</ele>
        <time>2018-03-02T09:55:07Z</time>
      </trkpt>
      <trkpt lat="47.5411" lon="-2.89643">
        <ele>2</ele>
        <time>2018-03-02T09:56:07Z</time>
      </trkpt>
      <trkpt lat="47.54065" lon="-2.89788">
        <ele>7</ele>
        <time>2018-03-02T09:57:07Z</time>
      </trkpt>
      <trkpt lat="47.54095" lon="-2.89986">
        <ele>3</ele>
        <time>2018-03-02T09:58:07Z</time>
      </trkpt>
      <trkpt lat="47.54102" lon="-2.90086">
        <ele>2</ele>
        <time>2018-03-02T09:59:07Z</time>
      </trkpt>
      <trkpt lat="47.54034" lon="-2.90125">
        <ele>4</ele>
        <time>2018-03-02T10:00:07Z</time>
      </trkpt>
      <trkpt lat="47.53944" lon="-2.90153">
        <ele>7</ele>
        <time>2018-03-02T10:01:07Z</time>
      </trkpt>
      <trkpt lat="47.53895" lon="-2.90222">
        <ele>7</ele>
        <time>2018-03-02T10:02:07Z</time>
      </trkpt>
      <trkpt lat="47.53841" lon="-2.90137">
        <ele>20</ele>
        <time>2018-03-02T10:03:07Z</time>
      </trkpt>
      <trkpt lat="47.53796" lon="-2.90225">
        <ele>22</ele>
        <time>2018-03-02T10:04:07Z</time>
      </trkpt>
      <trkpt lat="47.53759" lon="-2.90292">
        <ele>27</ele>
        <time>2018-03-02T10:05:07Z</time>
      </trkpt>
      <trkpt lat="47.53761" lon="-2.90365">
        <ele>25</ele>
        <time>2018-03-02T10:06:07Z</time>
      </trkpt>
      <trkpt lat="47.53718" lon="-2.90417">
        <ele>24</ele>
        <time>2018-03-02T10:07:07Z</time>
      </trkpt>
      <trkpt lat="47.53698" lon="-2.90432">
        <ele>22</ele>
        <time>2018-03-02T10:08:07Z</time>
      </trkpt>
      <trkpt lat="47.53624" lon="-2.90359">
        <ele>24</ele>
        <time>2018-03-02T10:09:07Z</time>
      </trkpt>
      <trkpt lat="47.53608" lon="-2.90319">
        <ele>26</ele>
        <time>2018-03-02T10:10:07Z</time>
      </trkpt>
      <trkpt lat="47.53612" lon="-2.90225">
        <ele>29</ele>
        <time>2018-03-02T10:11:07Z</time>
      </trkpt>
      <trkpt lat="47.53575" lon="-2.90219">
        <ele>27</ele>
        <time>2018-03-02T10:12:07Z</time>
      </trkpt>
      <trkpt lat="47.5352" lon="-2.90192">
        <ele>22</ele>
        <time>2018-03-02T10:13:07Z</time>
      </trkpt>
      <trkpt lat="47.53489" lon="-2.90159">
        <ele>17</ele>
        <time>2018-03-02T10:14:07Z</time>
      </trkpt>
      <trkpt lat="47.53526" lon="-2.90043">
        <ele>17</ele>
        <time>2018-03-02T10:15:07Z</time>
      </trkpt>
      <trkpt lat="47.53471" lon="-2.9001">
        <ele>10</ele>
        <time>2018-03-02T10:16:07Z</time>
      </trkpt>
      <trkpt lat="47.5346" lon="-2.89977">
        <ele>8</ele>
        <time>2018-03-02T10:17:07Z</time>
      </trkpt>
      <trkpt lat="47.53516" lon="-2.89889">
        <ele>11</ele>
        <time>2018-03-02T10:18:07Z</time>
      </trkpt>
      <trkpt lat="47.53514" lon="-2.89816">
        <ele>8</ele>
        <time>2018-03-02T10:19:07Z</time>
      </trkpt>
      <trkpt lat="47.53602" lon="-2.8977">
        <ele>13</ele>
        <time>2018-03-02T10:20:07Z</time>
      </trkpt>
      <trkpt lat="47.53716" lon="-2.8974">
        <ele>16</ele>
        <time>2018-03-02T10:21:07Z</time>
      </trkpt>
      <trkpt lat="47.53811" lon="-2.89685">
        <ele>16</ele>
        <time>2018-03-02T10:22:07Z</time>
      </trkpt>
      <trkpt lat="47.53907" lon="-2.89145">
        <ele>4</ele>
        <time>2018-03-02T10:23:07Z</time>
      </trkpt>
      <trkpt lat="47.53917" lon="-2.89002">
        <ele>3</ele>
        <time>2018-03-02T10:24:07Z</time>
      </trkpt>
      <trkpt lat="47.53925" lon="-2.88851">
        <ele>2</ele>
        <time>2018-03-02T10:25:07Z</time>
      </trkpt>
      <trkpt lat="47.53905" lon="-2.8872">
        <ele>4</ele>
        <time>2018-03-02T10:26:07Z</time>
      </trkpt>
      <trkpt lat="47.53882" lon="-2.88581">
        <ele>4</ele>
        <time>2018-03-02T10:27:07Z</time>
      </trkpt>
      <trkpt lat="47.53835" lon="-2.88426">
        <ele>4</ele>
        <time>2018-03-02T10:28:07Z</time>
      </trkpt>
      <trkpt lat="47.53825" lon="-2.88335">
        <ele>7</ele>
        <time>2018-03-02T10:29:07Z</time>
      </trkpt>
      <trkpt lat="47.53786" lon="-2.88256">
        <ele>11</ele>
        <time>2018-03-02T10:30:07Z</time>
      </trkpt>
      <trkpt lat="47.53723" lon="-2.88213">
        <ele>12</ele>
        <time>2018-03-02T10:31:07Z</time>
      </trkpt>
      <trkpt lat="47.53659" lon="-2.88147">
        <ele>12</ele>
        <time>2018-03-02T10:32:07Z</time>
      </trkpt>
      <trkpt lat="47.53637" lon="-2.88071">
        <ele>12</ele>
        <time>2018-03-02T10:33:07Z</time>
      </trkpt>
      <trkpt lat="47.53583" lon="-2.87956">
        <ele>11</ele>
        <time>2018-03-02T10:34:07Z</time>
      </trkpt>
      <trkpt lat="47.5355" lon="-2.87886">
        <ele>11</ele>
        <time>2018-03-02T10:35:07Z</time>
      </trkpt>
      <trkpt lat="47.53505" lon="-2.87852">
        <ele>10</ele>
        <time>2018-03-02T10:36:07Z</time>
      </trkpt>
      <trkpt lat="47.53464" lon="-2.87786">
        <ele>7</ele>
        <time>2018-03-02T10:37:07Z</time>
      </trkpt>
      <trkpt lat="47.53485" lon="-2.87622">
        <ele>3</ele>
        <time>2018-03-02T10:38:07Z</time>
      </trkpt>
      <trkpt lat="47.53501" lon="-2.87561">
        <ele>2</ele>
        <time>2018-03-02T10:39:07Z</time>
      </trkpt>
      <trkpt lat="47.53436" lon="-2.87427">
        <ele>2</ele>
        <time>2018-03-02T10:40:07Z</time>
      </trkpt>
      <trkpt lat="47.53348" lon="-2.87212">
        <ele>1</ele>
        <time>2018-03-02T10:41:07Z</time>
      </trkpt>
      <trkpt lat="47.53249" lon="-2.87042">
        <ele>3</ele>
        <time>2018-03-02T10:42:07Z</time>
      </trkpt>
      <trkpt lat="47.53118" lon="-2.86954">
        <ele>1</ele>
        <time>2018-03-02T10:43:07Z</time>
      </trkpt>
      <trkpt lat="47.53046" lon="-2.86872">
        <ele>1</ele>
        <time>2018-03-02T10:44:07Z</time>
      </trkpt>
      <trkpt lat="47.53024" lon="-2.86757">
        <ele>1</ele>
        <time>2018-03-02T10:45:07Z</time>
      </trkpt>
      <trkpt lat="47.52944" lon="-2.86714">
        <ele>7.4</ele>
        <time>2018-03-02T10:46:07Z</time>
      </trkpt>
      <trkpt lat="47.52813" lon="-2.8645">
        <ele>2</ele>
        <time>2018-03-02T10:47:07Z</time>
      </trkpt>
      <trkpt lat="47.52692" lon="-2.86286">
        <ele>3</ele>
        <time>2018-03-02T10:48:07Z</time>
      </trkpt>
      <trkpt lat="47.52563" lon="-2.86117">
        <ele>6</ele>
        <time>2018-03-02T10:49:07Z</time>
      </trkpt>
      <trkpt lat="47.52456" lon="-2.86013">
        <ele>6</ele>
        <time>2018-03-02T10:50:07Z</time>
      </trkpt>
      <trkpt lat="47.52317" lon="-2.85904">
        <ele>5</ele>
        <time>2018-03-02T10:51:07Z</time>
      </trkpt>
      <trkpt lat="47.52299" lon="-2.85922">
        <ele>4</ele>
        <time>2018-03-02T10:52:07Z</time>
      </trkpt>
      <trkpt lat="47.52247" lon="-2.85907">
        <ele>4</ele>
        <time>2018-03-02T10:53:07Z</time>
      </trkpt>
      <trkpt lat="47.52139" lon="-2.85877">
        <ele>5</ele>
        <time>2018-03-02T10:54:07Z</time>
      </trkpt>
      <trkpt lat="47.52036" lon="-2.85837">
        <ele>8</ele>
        <time>2018-03-02T10:55:07Z</time>
      </trkpt>
      <trkpt lat="47.51936" lon="-2.85843">
        <ele>3</ele>
        <time>2018-03-02T10:56:07Z</time>
      </trkpt>
      <trkpt lat="47.51895" lon="-2.85722">
        <ele>3</ele>
        <time>2018-03-02T10:57:07Z</time>
      </trkpt>
      <trkpt lat="47.51856" lon="-2.85546">
        <ele>2</ele>
        <time>2018-03-02T10:58:07Z</time>
      </trkpt>
      <trkpt lat="47.51825" lon="-2.85428">
        <ele>3</ele>
        <time>2018-03-02T10:59:07Z</time>
      </trkpt>
      <trkpt lat="47.51712" lon="-2.85206">
        <ele>1</ele>
        <time>2018-03-02T11:00:07Z</time>
      </trkpt>
      <trkpt lat="47.51673" lon="-2.85048">
        <ele>1</ele>
        <time>2018-03-02T11:01:07Z</time>
      </trkpt>
      <trkpt lat="47.51653" lon="-2.84945">
        <ele>3</ele>
        <time>2018-03-02T11:02:07Z</time>
      </trkpt>
      <trkpt lat="47.51573" lon="-2.84948">
        <ele>2</ele>
        <time>2018-03-02T11:03:07Z</time>
      </trkpt>
      <trkpt lat="47.5152" lon="-2.8496">
        <ele>1</ele>
        <time>2018-03-02T11:04:07Z</time>
      </trkpt>
      <trkpt lat="47.51493" lon="-2.84872">
        <ele>2</ele>
        <time>2018-03-02T11:05:07Z</time>
      </trkpt>
      <trkpt lat="47.51262" lon="-2.84621">
        <ele>8</ele>
        <time>2018-03-02T11:06:07Z</time>
      </trkpt>
      <trkpt lat="47.51161" lon="-2.84702">
        <ele>10</ele>
        <time>2018-03-02T11:07:07Z</time>
      </trkpt>
      <trkpt lat="47.51085" lon="-2.84751">
        <ele>9</ele>
        <time>2018-03-02T11:08:07Z</time>
      </trkpt>
      <trkpt lat="47.51009" lon="-2.84724">
        <ele>9</ele>
        <time>2018-03-02T11:09:07Z</time>
      </trkpt>
      <trkpt lat="47.50899" lon="-2.84784">
        <ele>13</ele>
        <time>2018-03-02T11:10:07Z</time>
      </trkpt>
      <trkpt lat="47.50837" lon="-2.84818">
        <ele>11</ele>
        <time>2018-03-02T11:11:07Z</time>
      </trkpt>
      <trkpt lat="47.50745" lon="-2.84775">
        <ele>15</ele>
        <time>2018-03-02T11:12:07Z</time>
      </trkpt>
      <trkpt lat="47.50659" lon="-2.84821">
        <ele>19</ele>
        <time>2018-03-02T11:13:07Z</time>
      </trkpt>
      <trkpt lat="47.50579" lon="-2.84888">
        <ele>14</ele>
        <time>2018-03-02T11:14:07Z</time>
      </trkpt>
      <trkpt lat="47.50487" lon="-2.84851">
        <ele>21</ele>
        <time>2018-03-02T11:15:07Z</time>
      </trkpt>
      <trkpt lat="47.50413" lon="-2.84827">
        <ele>24</ele>
        <time>2018-03-02T11:16:07Z</time>
      </trkpt>
      <trkpt lat="47.50329" lon="-2.84863">
        <ele>25</ele>
        <time>2018-03-02T11:17:07Z</time>
      </trkpt>
      <trkpt lat="47.50267" lon="-2.84948">
        <ele>20</ele>
        <time>2018-03-02T11:18:07Z</time>
      </trkpt>
      <trkpt lat="47.5022" lon="-2.84979">
        <ele>19</ele>
        <time>2018-03-02T11:19:07Z</time>
      </trkpt>
      <trkpt lat="47.50173" lon="-2.85015">
        <ele>20</ele>
        <time>2018-03-02T11:20:07Z</time>
      </trkpt>
      <trkpt lat="47.50112" lon="-2.85039">
        <ele>18</ele>
        <time>2018-03-02T11:21:07Z</time>
      </trkpt>
      <trkpt lat="47.50064" lon="-2.85018">
        <ele>23</ele>
        <time>2018-03-02T11:22:07Z</time>
      </trkpt>
      <trkpt lat="47.50042" lon="-2.85051">
        <ele>16</ele>
        <time>2018-03-02T11:23:07Z</time>
      </trkpt>
      <trkpt lat="47.49952" lon="-2.84945">
        <ele>18</ele>
        <time>2018-03-02T11:24:07Z</time>
      </trkpt>
      <trkpt lat="47.49923" lon="-2.84854">
        <ele>14</ele>
        <time>2018-03-02T11:25:07Z</time>
      </trkpt>
      <trkpt lat="47.49931" lon="-2.84769">
        <ele>22</ele>
        <time>2018-03-02T11:26:07Z</time>
      </trkpt>
      <trkpt lat="47.4987" lon="-2.84724">
        <ele>17</ele>
        <time>2018-03-02T11:27:07Z</time>
      </trkpt>
      <trkpt lat="47.49808" lon="-2.84636">
        <ele>16</ele>
        <time>2018-03-02T11:28:07Z</time>
      </trkpt>
      <trkpt lat="47.49761" lon="-2.84548">
        <ele>20</ele>
        <time>2018-03-02T11:29:07Z</time>
      </trkpt>
      <trkpt lat="47.49671" lon="-2.84387">
        <ele>14</ele>
        <time>2018-03-02T11:30:07Z</time>
      </trkpt>
      <trkpt lat="47.49644" lon="-2.84272">
        <ele>13</ele>
        <time>2018-03-02T11:31:07Z</time>
      </trkpt>
      <trkpt lat="47.49636" lon="-2.84153">
        <ele>15</ele>
        <time>2018-03-02T11:32:07Z</time>
      </trkpt>
      <trkpt lat="47.4957" lon="-2.84153">
        <ele>10</ele>
        <time>2018-03-02T11:33:07Z</time>
      </trkpt>
      <trkpt lat="47.49515" lon="-2.84029">
        <ele>8</ele>
        <time>2018-03-02T11:34:07Z</time>
      </trkpt>
      <trkpt lat="47.49464" lon="-2.83835">
        <ele>13</ele>
        <time>2018-03-02T11:35:07Z</time>
      </trkpt>
      <trkpt lat="47.49419" lon="-2.83698">
        <ele>9</ele>
        <time>2018-03-02T11:36:07Z</time>
      </trkpt>
      <trkpt lat="47.49414" lon="-2.83625">
        <ele>8</ele>
        <time>2018-03-02T11:37:07Z</time>
      </trkpt>
      <trkpt lat="47.49435" lon="-2.83552">
        <ele>10</ele>
        <time>2018-03-02T11:38:07Z</time>
      </trkpt>
      <trkpt lat="47.49349" lon="-2.83449">
        <ele>7</ele>
        <time>2018-03-02T11:39:07Z</time>
      </trkpt>
      <trkpt lat="47.49267" lon="-2.8341">
        <ele>4</ele>
        <time>2018-03-02T11:40:07Z</time>
      </trkpt>
      <trkpt lat="47.49218" lon="-2.8344">
        <ele>2</ele>
        <time>2018-03-02T11:41:07Z</time>
      </trkpt>
      <trkpt lat="47.49267" lon="-2.83334">
        <ele>4</ele>
        <time>2018-03-02T11:42:07Z</time>
      </trkpt>
      <trkpt lat="47.49275" lon="-2.83215">
        <ele>6</ele>
        <time>2018-03-02T11:43:07Z</time>
      </trkpt>
      <trkpt lat="47.49283" lon="-2.83121">
        <ele>7</ele>
        <time>2018-03-02T11:44:07Z</time>
      </trkpt>
      <trkpt lat="47.49277" lon="-2.83021">
        <ele>8</ele>
        <time>2018-03-02T11:45:07Z</time>
      </trkpt>
      <trkpt lat="47.49236" lon="-2.82982">
        <ele>6</ele>
        <time>2018-03-02T11:46:07Z</time>
      </trkpt>
      <trkpt lat="47.49195" lon="-2.82894">
        <ele>6</ele>
        <time>2018-03-02T11:47:07Z</time>
      </trkpt>
      <trkpt lat="47.49164" lon="-2.82827">
        <ele>5</ele>
        <time>2018-03-02T11:48:07Z</time>
      </trkpt>
      <trkpt lat="47.4915" lon="-2.82782">
        <ele>6</ele>
        <time>2018-03-02T11:49:07Z</time>
      </trkpt>
      <trkpt lat="47.49168" lon="-2.82681">
        <ele>9</ele>
        <time>2018-03-02T11:50:07Z</time>
      </trkpt>
      <trkpt lat="47.49103" lon="-2.82657">
        <ele>7</ele>
        <time>2018-03-02T11:51:07Z</time>
      </trkpt>
      <trkpt lat="47.49052" lon="-2.82578">
        <ele>8</ele>
        <time>2018-03-02T11:52:07Z</time>
      </trkpt>
      <trkpt lat="47.49011" lon="-2.82439">
        <ele>8</ele>
        <time>2018-03-02T11:53:07Z</time>
      </trkpt>
      <trkpt lat="47.48949" lon="-2.82378">
        <ele>4</ele>
        <time>2018-03-02T11:54:07Z</time>
      </trkpt>
      <trkpt lat="47.4897" lon="-2.82223">
        <ele>7</ele>
        <time>2018-03-02T11:55:07Z</time>
      </trkpt>
      <trkpt lat="47.48965" lon="-2.82144">
        <ele>5</ele>
        <time>2018-03-02T11:56:07Z</time>
      </trkpt>
      <trkpt lat="47.48967" lon="-2.82074">
        <ele>5</ele>
        <time>2018-03-02T11:57:07Z</time>
      </trkpt>
      <trkpt lat="47.48922" lon="-2.8195">
        <ele>5</ele>
        <time>2018-03-02T11:58:07Z</time>
      </trkpt>
      <trkpt lat="47.48873" lon="-2.81829">
        <ele>6</ele>
        <time>2018-03-02T11:59:07Z</time>
      </trkpt>
      <trkpt lat="47.48808" lon="-2.81786">
        <ele>4</ele>
        <time>2018-03-02T12:00:07Z</time>
      </trkpt>
      <trkpt lat="47.48769" lon="-2.81726">
        <ele>4</ele>
        <time>2018-03-02T12:01:07Z</time>
      </trkpt>
      <trkpt lat="47.48728" lon="-2.81659">
        <ele>3</ele>
        <time>2018-03-02T12:02:07Z</time>
      </trkpt>
      <trkpt lat="47.48701" lon="-2.81568">
        <ele>3</ele>
        <time>2018-03-02T12:03:07Z</time>
      </trkpt>
      <trkpt lat="47.48689" lon="-2.8141">
        <ele>2</ele>
        <time>2018-03-02T12:04:07Z</time>
      </trkpt>
      <trkpt lat="47.48689" lon="-2.81295">
        <ele>3</ele>
        <time>2018-03-02T12:05:07Z</time>
      </trkpt>
      <trkpt lat="47.4876" lon="-2.81185">
        <ele>4</ele>
        <time>2018-03-02T12:06:07Z</time>
      </trkpt>
      <trkpt lat="47.48832" lon="-2.81067">
        <ele>10</ele>
        <time>2018-03-02T12:07:07Z</time>
      </trkpt>
      <trkpt lat="47.48902" lon="-2.8093">
        <ele>8</ele>
        <time>2018-03-02T12:08:07Z</time>
      </trkpt>
      <trkpt lat="47.48924" lon="-2.80733">
        <ele>5</ele>
        <time>2018-03-02T12:09:07Z</time>
      </trkpt>
      <trkpt lat="47.489" lon="-2.80588">
        <ele>3</ele>
        <time>2018-03-02T12:10:07Z</time>
      </trkpt>
      <trkpt lat="47.48885" lon="-2.80451">
        <ele>3</ele>
        <time>2018-03-02T12:11:07Z</time>
      </trkpt>
      <trkpt lat="47.48847" lon="-2.80275">
        <ele>2</ele>
        <time>2018-03-02T12:12:07Z</time>
      </trkpt>
      <trkpt lat="47.48799" lon="-2.8012">
        <ele>1</ele>
        <time>2018-03-02T12:13:07Z</time>
      </trkpt>
      <trkpt lat="47.4874" lon="-2.79984">
        <ele>4</ele>
        <time>2018-03-02T12:14:07Z</time>
      </trkpt>
      <trkpt lat="47.48719" lon="-2.79908">
        <ele>4</ele>
        <time>2018-03-02T12:15:07Z</time>
      </trkpt>
      <trkpt lat="47.48676" lon="-2.79841">
        <ele>6</ele>
        <time>2018-03-02T12:16:07Z</time>
      </trkpt>
      <trkpt lat="47.48631" lon="-2.79756">
        <ele>6</ele>
        <time>2018-03-02T12:17:07Z</time>
      </trkpt>
      <trkpt lat="47.48576" lon="-2.79735">
        <ele>4</ele>
        <time>2018-03-02T12:18:07Z</time>
      </trkpt>
      <trkpt lat="47.48551" lon="-2.79544">
        <ele>5</ele>
        <time>2018-03-02T12:19:07Z</time>
      </trkpt>
      <trkpt lat="47.48518" lon="-2.79401">
        <ele>6</ele>
        <time>2018-03-02T12:20:07Z</time>
      </trkpt>
      <trkpt lat="47.48506" lon="-2.79313">
        <ele>7</ele>
        <time>2018-03-02T12:21:07Z</time>
      </trkpt>
      <trkpt lat="47.48559" lon="-2.79249">
        <ele>6</ele>
        <time>2018-03-02T12:22:07Z</time>
      </trkpt>
      <trkpt lat="47.48633" lon="-2.79319">
        <ele>6</ele>
        <time>2018-03-02T12:23:07Z</time>
      </trkpt>
      <trkpt lat="47.48748" lon="-2.79301">
        <ele>5</ele>
        <time>2018-03-02T12:24:07Z</time>
      </trkpt>
      <trkpt lat="47.48867" lon="-2.79249">
        <ele>4</ele>
        <time>2018-03-02T12:25:07Z</time>
      </trkpt>
      <trkpt lat="47.48941" lon="-2.79095">
        <ele>3</ele>
        <time>2018-03-02T12:26:07Z</time>
      </trkpt>
      <trkpt lat="47.48984" lon="-2.78946">
        <ele>4</ele>
        <time>2018-03-02T12:27:07Z</time>
      </trkpt>
      <trkpt lat="47.48992" lon="-2.78794">
        <ele>5</ele>
        <time>2018-03-02T12:28:07Z</time>
      </trkpt>
      <trkpt lat="47.49015" lon="-2.78709">
        <ele>4</ele>
        <time>2018-03-02T12:29:07Z</time>
      </trkpt>
      <trkpt lat="47.49099" lon="-2.787">
        <ele>4</ele>
        <time>2018-03-02T12:30:07Z</time>
      </trkpt>
      <trkpt lat="47.49185" lon="-2.7874">
        <ele>4</ele>
        <time>2018-03-02T12:31:07Z</time>
      </trkpt>
      <trkpt lat="47.49279" lon="-2.78876">
        <ele>7</ele>
        <time>2018-03-02T12:32:07Z</time>
      </trkpt>
      <trkpt lat="47.4933" lon="-2.78967">
        <ele>9</ele>
        <time>2018-03-02T12:33:07Z</time>
      </trkpt>
      <trkpt lat="47.49417" lon="-2.789">
        <ele>9</ele>
        <time>2018-03-02T12:34:07Z</time>
      </trkpt>
      <trkpt lat="47.49533" lon="-2.78861">
        <ele>9</ele>
        <time>2018-03-02T12:35:07Z</time>
      </trkpt>
      <trkpt lat="47.49624" lon="-2.78821">
        <ele>10</ele>
        <time>2018-03-02T12:36:07Z</time>
      </trkpt>
      <trkpt lat="47.49683" lon="-2.78743">
        <ele>13</ele>
        <time>2018-03-02T12:37:07Z</time>
      </trkpt>
      <trkpt lat="47.49822" lon="-2.78463">
        <ele>16</ele>
        <time>2018-03-02T12:38:07Z</time>
      </trkpt>
      <trkpt lat="47.4989" lon="-2.78333">
        <ele>19</ele>
        <time>2018-03-02T12:39:07Z</time>
      </trkpt>
      <trkpt lat="47.50019" lon="-2.78196">
        <ele>26</ele>
        <time>2018-03-02T12:40:07Z</time>
      </trkpt>
      <trkpt lat="47.5011" lon="-2.78099">
        <ele>28</ele>
        <time>2018-03-02T12:41:07Z</time>
      </trkpt>
      <trkpt lat="47.50114" lon="-2.77978">
        <ele>27</ele>
        <time>2018-03-02T12:42:07Z</time>
      </trkpt>
      <trkpt lat="47.49976" lon="-2.77947">
        <ele>20</ele>
        <time>2018-03-02T12:43:07Z</time>
      </trkpt>
      <trkpt lat="47.49866" lon="-2.77914">
        <ele>14</ele>
        <time>2018-03-02T12:44:07Z</time>
      </trkpt>
      <trkpt lat="47.49835" lon="-2.7779">
        <ele>16</ele>
        <time>2018-03-02T12:45:07Z</time>
      </trkpt>
      <trkpt lat="47.49831" lon="-2.77635">
        <ele>15</ele>
        <time>2018-03-02T12:46:07Z</time>
      </trkpt>
      <trkpt lat="47.49822" lon="-2.77477">
        <ele>15</ele>
        <time>2018-03-02T12:47:07Z</time>
      </trkpt>
      <trkpt lat="47.49798" lon="-2.7738">
        <ele>14</ele>
        <time>2018-03-02T12:48:07Z</time>
      </trkpt>
    </trkseg>
  </trk>
</gpx>